Panda — PBCS — position and weather

sailwx.info

Track history (hours):
 
Tides and Currents Weather Stations Pressure Air Temp Water Temp Dewpoint Dewpoint Depression Visibility Wind Speed Wind Dir Waves Ship Positions

Panda

Last reported at 2016-Feb-09 22:34 UTC. Time now 2016-Feb-09 22:39 UTC.
Position N 54°49' E 019°15'.

Length 89 m; draft 3 m.

Type: Cargo ship. MMSI: 245014000.

Date/timePositionNaut miles runAvg speedWind from/ knotsBaromVisibWave heightAir tempDewpointWater temp
2016-Feb-09 22:34N 54°49' E 019°15'1010.1
2016-Feb-09 21:34N 54°53' E 018°59'1010.3
2016-Feb-09 20:34N 54°56' E 018°42'1010.2
2016-Feb-09 19:33N 54°57' E 018°24'1010.2
2016-Feb-09 18:33N 54°56' E 018°06'18110.3
2016-Feb-09 01:03N 54°37' E 012°55'510.5
2016-Feb-09 00:34N 54°36' E 012°46'1511.1
2016-Feb-08 23:11N 54°32' E 012°21'610.0
2016-Feb-08 22:33N 54°27' E 012°14'9 9.4
2016-Feb-08 21:33N 54°23' E 011°59'1110.9
2016-Feb-08 20:33N 54°16' E 011°46'1111.0
2016-Feb-08 19:33N 54°08' E 011°32'10 9.9
2016-Feb-08 18:34N 54°01' E 011°20'8 8.1
2016-Feb-08 17:34N 53°54' E 011°28'0 0.1
2016-Feb-08 16:34N 53°54' E 011°28'0 0.0
2016-Feb-08 15:34N 53°54' E 011°28'0 0.0
2016-Feb-08 14:34N 53°54' E 011°28'0 0.0
2016-Feb-08 13:33N 53°54' E 011°28'0 0.0
2016-Feb-08 12:34N 53°54' E 011°28'0 0.0
2016-Feb-08 11:34N 53°54' E 011°28'0 0.0
2016-Feb-08 10:33N 53°54' E 011°28'0 0.0
2016-Feb-08 09:34N 53°54' E 011°28'0 0.0
2016-Feb-08 08:33N 53°54' E 011°28'0 0.0
2016-Feb-08 07:33N 53°54' E 011°28'0 0.0
2016-Feb-08 06:33N 53°54' E 011°28'0 0.0
2016-Feb-08 05:33N 53°54' E 011°28'0 0.0
2016-Feb-08 04:33N 53°54' E 011°28'0 0.0
2016-Feb-08 03:33N 53°54' E 011°28'0 0.0
2016-Feb-08 02:33N 53°54' E 011°28'0 0.0
2016-Feb-08 01:33N 53°54' E 011°28'0 0.0
2016-Feb-08 00:33N 53°54' E 011°28'0 0.0
2016-Feb-07 23:33N 53°54' E 011°28'0 0.0
2016-Feb-07 22:33N 53°54' E 011°28'0 0.0
2016-Feb-07 21:33N 53°54' E 011°28'0 0.0
2016-Feb-07 20:33N 53°54' E 011°28'0 0.0
2016-Feb-07 19:33N 53°54' E 011°28'0 0.0
2016-Feb-07 18:33N 53°54' E 011°28'0 0.0
2016-Feb-07 17:33N 53°54' E 011°28'0 0.0
2016-Feb-07 16:34N 53°54' E 011°28'0 0.0
2016-Feb-07 15:33N 53°54' E 011°28'0 0.0
2016-Feb-07 14:33N 53°54' E 011°28'0 0.0
2016-Feb-07 13:33N 53°54' E 011°28'0 0.0
2016-Feb-07 12:33N 53°54' E 011°28'0 0.0
2016-Feb-07 11:33N 53°54' E 011°28'0 0.0
2016-Feb-07 10:33N 53°54' E 011°28'0 0.0
2016-Feb-07 09:33N 53°54' E 011°28'0 0.0
2016-Feb-07 08:33N 53°54' E 011°28'0 0.0
2016-Feb-07 07:33N 53°54' E 011°28'0 0.0
2016-Feb-07 06:33N 53°54' E 011°28'0 0.0
2016-Feb-07 05:33N 53°54' E 011°28'0 0.0
2016-Feb-07 04:33N 53°54' E 011°28'0 0.0
2016-Feb-07 03:33N 53°54' E 011°28'0 0.0
2016-Feb-07 02:33N 53°54' E 011°28'0 0.0
2016-Feb-07 01:33N 53°54' E 011°28'0 0.0
2016-Feb-07 00:33N 53°54' E 011°28'1 0.9
2016-Feb-06 23:33N 53°55' E 011°26'7 7.4
2016-Feb-06 22:33N 54°01' E 011°20'9 9.5
2016-Feb-06 21:33N 54°08' E 011°32'10 9.9
2016-Feb-06 20:33N 54°15' E 011°43'1010.0
2016-Feb-06 19:33N 54°23' E 011°55'9 9.3
2016-Feb-06 18:33N 54°27' E 012°09'8 8.4
2016-Feb-06 17:33N 54°32' E 012°20'58 9.6
2016-Feb-06 11:33N 54°41' E 013°59'1010.3
2016-Feb-06 10:32N 54°39' E 014°17'20 9.7
2016-Feb-06 08:29N 54°41' E 014°51'112 9.4
2016-Feb-05 20:33N 54°57' E 018°04'8 8.5
2016-Feb-05 19:33N 54°57' E 018°19'8 8.4
2016-Feb-05 18:33N 54°57' E 018°33'8 8.5
2016-Feb-05 17:33N 54°54' E 018°47'9 8.7
2016-Feb-05 16:33N 54°51' E 019°01'9 8.5
2016-Feb-05 15:33N 54°48' E 019°15'9 8.6
2016-Feb-05 14:33N 54°45' E 019°29'9 9.4
2016-Feb-05 13:33N 54°42' E 019°45'3 0.1
2016-Feb-04 00:33N 54°40' E 019°49'7 7.3
2016-Feb-03 23:33N 54°44' E 019°38'7 7.5
2016-Feb-03 22:33N 54°47' E 019°27'8 7.5
2016-Feb-03 21:33N 54°50' E 019°15'7 6.7
2016-Feb-03 20:33N 54°52' E 019°04'6 6.2
2016-Feb-03 19:34N 54°54' E 018°54'2 2.4
2016-Feb-03 18:33N 54°55' E 018°50'3 2.6
2016-Feb-03 17:33N 54°54' E 018°54'2 2.4
2016-Feb-03 16:33N 54°54' E 018°58'2 2.1
2016-Feb-03 15:33N 54°54' E 019°02'2 1.8
2016-Feb-03 14:34N 54°53' E 019°05'2 2.1
2016-Feb-03 13:33N 54°53' E 019°08'2 1.9
2016-Feb-03 12:33N 54°53' E 019°12'2 1.9
2016-Feb-03 11:33N 54°53' E 019°15'2 1.9
2016-Feb-03 10:33N 54°53' E 019°18'1 1.5
2016-Feb-03 09:33N 54°54' E 019°20'2 1.8
2016-Feb-03 08:33N 54°56' E 019°22'2 1.5
2016-Feb-03 07:33N 54°57' E 019°23'1 1.1
2016-Feb-03 06:34N 54°58' E 019°25'1 0.9
2016-Feb-03 05:33N 54°58' E 019°26'2 1.7
2016-Feb-03 04:33N 54°59' E 019°29'2 2.2
2016-Feb-03 03:31N 54°59' E 019°33'1 0.8
2016-Feb-03 02:06N 55°00' E 019°33'3 5.9
2016-Feb-03 01:33N 55°00' E 019°27'6 5.9
2016-Feb-03 00:33N 55°00' E 019°17'6 6.0
2016-Feb-02 23:33N 55°00' E 019°06'6 6.1
2016-Feb-02 22:33N 54°59' E 018°56'6 6.1
2016-Feb-02 21:33N 54°58' E 018°45'6 6.3
2016-Feb-02 20:33N 54°57' E 018°35'7 6.7
2016-Feb-02 19:34N 54°57' E 018°23'7 6.8
2016-Feb-02 18:34N 54°56' E 018°11'7 6.7
2016-Feb-02 17:33N 54°55' E 017°59'147 9.2
2016-Feb-02 01:31N 54°40' E 013°46'5110.1
2016-Feb-01 20:29N 54°32' E 012°19'1010.8
2016-Feb-01 19:33N 54°23' E 012°09'1110.7
2016-Feb-01 18:33N 54°13' E 012°05'4 3.5
2016-Feb-01 17:19N 54°09' E 012°07'0 0.0
2016-Feb-01 16:31N 54°09' E 012°07'0 0.0
2016-Feb-01 15:28N 54°09' E 012°07'0 0.0
2016-Feb-01 09:31N 54°09' E 012°07'0 0.0
2016-Feb-01 06:27N 54°09' E 012°07'0 0.0
2016-Feb-01 03:30N 54°09' E 012°07'0 0.0
2016-Feb-01 02:30N 54°09' E 012°07'0 0.0
2016-Jan-31 23:33N 54°09' E 012°07'2 1.5
2016-Jan-31 22:22N 54°10' E 012°06'8 9.5
2016-Jan-31 21:32N 54°17' E 011°58'1111.4
2016-Jan-31 20:33N 54°24' E 011°43'1212.3
2016-Jan-31 19:33N 54°30' E 011°25'1212.2
2016-Jan-31 18:33N 54°35' E 011°06'1111.2
2016-Jan-31 17:33N 54°34' E 010°46'35 6.9
2016-Jan-31 12:34N 54°22' E 009°50'8 7.8
2016-Jan-31 11:29N 54°17' E 009°39'18 7.5
2016-Jan-31 09:07N 54°04' E 009°19'5 8.4
2016-Jan-31 08:32N 53°59' E 009°17'7 7.2
2016-Jan-31 07:33N 53°54' E 009°09'5 4.8
2016-Jan-31 06:33N 53°51' E 009°02'10 9.8
2016-Jan-31 05:33N 53°51' E 008°45'9 9.4
2016-Jan-31 04:33N 53°58' E 008°33'10 9.8
2016-Jan-31 03:33N 53°59' E 008°17'1010.0
2016-Jan-31 02:33N 53°58' E 008°00'1010.4
2016-Jan-31 01:33N 53°55' E 007°43'1917.4
2016-Jan-31 00:27N 53°51' E 007°11'2 2.1
2016-Jan-30 23:34N 53°50' E 007°08'  
Track history (hours):
 
Tides and Currents Weather Stations Pressure Air Temp Water Temp Dewpoint Dewpoint Depression Visibility Wind Speed Wind Dir Waves Ship Positions

Panda

Last reported at 2016-Feb-09 22:34 UTC. Time now 2016-Feb-09 22:39 UTC.
Position N 54°49' E 019°15'.

Length 89 m; draft 3 m.

Type: Cargo ship. MMSI: 245014000.

Date/timePositionNaut miles runAvg speedWind from/ knotsBaromVisibWave heightAir tempDewpointWater temp
2016-Feb-09 22:34N 54°49' E 019°15'1010.1
2016-Feb-09 21:34N 54°53' E 018°59'1010.3
2016-Feb-09 20:34N 54°56' E 018°42'1010.2
2016-Feb-09 19:33N 54°57' E 018°24'1010.2
2016-Feb-09 18:33N 54°56' E 018°06'18110.3
2016-Feb-09 01:03N 54°37' E 012°55'510.5
2016-Feb-09 00:34N 54°36' E 012°46'1511.1
2016-Feb-08 23:11N 54°32' E 012°21'610.0
2016-Feb-08 22:33N 54°27' E 012°14'9 9.4
2016-Feb-08 21:33N 54°23' E 011°59'1110.9
2016-Feb-08 20:33N 54°16' E 011°46'1111.0
2016-Feb-08 19:33N 54°08' E 011°32'10 9.9
2016-Feb-08 18:34N 54°01' E 011°20'8 8.1
2016-Feb-08 17:34N 53°54' E 011°28'0 0.1
2016-Feb-08 16:34N 53°54' E 011°28'0 0.0
2016-Feb-08 15:34N 53°54' E 011°28'0 0.0
2016-Feb-08 14:34N 53°54' E 011°28'0 0.0
2016-Feb-08 13:33N 53°54' E 011°28'0 0.0
2016-Feb-08 12:34N 53°54' E 011°28'0 0.0
2016-Feb-08 11:34N 53°54' E 011°28'0 0.0
2016-Feb-08 10:33N 53°54' E 011°28'0 0.0
2016-Feb-08 09:34N 53°54' E 011°28'0 0.0
2016-Feb-08 08:33N 53°54' E 011°28'0 0.0
2016-Feb-08 07:33N 53°54' E 011°28'0 0.0
2016-Feb-08 06:33N 53°54' E 011°28'0 0.0
2016-Feb-08 05:33N 53°54' E 011°28'0 0.0
2016-Feb-08 04:33N 53°54' E 011°28'0 0.0
2016-Feb-08 03:33N 53°54' E 011°28'0 0.0
2016-Feb-08 02:33N 53°54' E 011°28'0 0.0
2016-Feb-08 01:33N 53°54' E 011°28'0 0.0
2016-Feb-08 00:33N 53°54' E 011°28'0 0.0
2016-Feb-07 23:33N 53°54' E 011°28'0 0.0
2016-Feb-07 22:33N 53°54' E 011°28'0 0.0
2016-Feb-07 21:33N 53°54' E 011°28'0 0.0
2016-Feb-07 20:33N 53°54' E 011°28'0 0.0
2016-Feb-07 19:33N 53°54' E 011°28'0 0.0
2016-Feb-07 18:33N 53°54' E 011°28'0 0.0
2016-Feb-07 17:33N 53°54' E 011°28'0 0.0
2016-Feb-07 16:34N 53°54' E 011°28'0 0.0
2016-Feb-07 15:33N 53°54' E 011°28'0 0.0
2016-Feb-07 14:33N 53°54' E 011°28'0 0.0
2016-Feb-07 13:33N 53°54' E 011°28'0 0.0
2016-Feb-07 12:33N 53°54' E 011°28'0 0.0
2016-Feb-07 11:33N 53°54' E 011°28'0 0.0
2016-Feb-07 10:33N 53°54' E 011°28'0 0.0
2016-Feb-07 09:33N 53°54' E 011°28'0 0.0
2016-Feb-07 08:33N 53°54' E 011°28'0 0.0
2016-Feb-07 07:33N 53°54' E 011°28'0 0.0
2016-Feb-07 06:33N 53°54' E 011°28'0 0.0
2016-Feb-07 05:33N 53°54' E 011°28'0 0.0
2016-Feb-07 04:33N 53°54' E 011°28'0 0.0
2016-Feb-07 03:33N 53°54' E 011°28'0 0.0
2016-Feb-07 02:33N 53°54' E 011°28'0 0.0
2016-Feb-07 01:33N 53°54' E 011°28'0 0.0
2016-Feb-07 00:33N 53°54' E 011°28'1 0.9
2016-Feb-06 23:33N 53°55' E 011°26'7 7.4
2016-Feb-06 22:33N 54°01' E 011°20'9 9.5
2016-Feb-06 21:33N 54°08' E 011°32'10 9.9
2016-Feb-06 20:33N 54°15' E 011°43'1010.0
2016-Feb-06 19:33N 54°23' E 011°55'9 9.3
2016-Feb-06 18:33N 54°27' E 012°09'8 8.4
2016-Feb-06 17:33N 54°32' E 012°20'58 9.6
2016-Feb-06 11:33N 54°41' E 013°59'1010.3
2016-Feb-06 10:32N 54°39' E 014°17'20 9.7
2016-Feb-06 08:29N 54°41' E 014°51'112 9.4
2016-Feb-05 20:33N 54°57' E 018°04'8 8.5
2016-Feb-05 19:33N 54°57' E 018°19'8 8.4
2016-Feb-05 18:33N 54°57' E 018°33'8 8.5
2016-Feb-05 17:33N 54°54' E 018°47'9 8.7
2016-Feb-05 16:33N 54°51' E 019°01'9 8.5
2016-Feb-05 15:33N 54°48' E 019°15'9 8.6
2016-Feb-05 14:33N 54°45' E 019°29'9 9.4
2016-Feb-05 13:33N 54°42' E 019°45'3 0.1
2016-Feb-04 00:33N 54°40' E 019°49'7 7.3
2016-Feb-03 23:33N 54°44' E 019°38'7 7.5
2016-Feb-03 22:33N 54°47' E 019°27'8 7.5
2016-Feb-03 21:33N 54°50' E 019°15'7 6.7
2016-Feb-03 20:33N 54°52' E 019°04'6 6.2
2016-Feb-03 19:34N 54°54' E 018°54'2 2.4
2016-Feb-03 18:33N 54°55' E 018°50'3 2.6
2016-Feb-03 17:33N 54°54' E 018°54'2 2.4
2016-Feb-03 16:33N 54°54' E 018°58'2 2.1
2016-Feb-03 15:33N 54°54' E 019°02'2 1.8
2016-Feb-03 14:34N 54°53' E 019°05'2 2.1
2016-Feb-03 13:33N 54°53' E 019°08'2 1.9
2016-Feb-03 12:33N 54°53' E 019°12'2 1.9
2016-Feb-03 11:33N 54°53' E 019°15'2 1.9
2016-Feb-03 10:33N 54°53' E 019°18'1 1.5
2016-Feb-03 09:33N 54°54' E 019°20'2 1.8
2016-Feb-03 08:33N 54°56' E 019°22'2 1.5
2016-Feb-03 07:33N 54°57' E 019°23'1 1.1
2016-Feb-03 06:34N 54°58' E 019°25'1 0.9
2016-Feb-03 05:33N 54°58' E 019°26'2 1.7
2016-Feb-03 04:33N 54°59' E 019°29'2 2.2
2016-Feb-03 03:31N 54°59' E 019°33'1 0.8
2016-Feb-03 02:06N 55°00' E 019°33'3 5.9
2016-Feb-03 01:33N 55°00' E 019°27'6 5.9
2016-Feb-03 00:33N 55°00' E 019°17'6 6.0
2016-Feb-02 23:33N 55°00' E 019°06'6 6.1
2016-Feb-02 22:33N 54°59' E 018°56'6 6.1
2016-Feb-02 21:33N 54°58' E 018°45'6 6.3
2016-Feb-02 20:33N 54°57' E 018°35'7 6.7
2016-Feb-02 19:34N 54°57' E 018°23'7 6.8
2016-Feb-02 18:34N 54°56' E 018°11'7 6.7
2016-Feb-02 17:33N 54°55' E 017°59'147 9.2
2016-Feb-02 01:31N 54°40' E 013°46'5110.1
2016-Feb-01 20:29N 54°32' E 012°19'1010.8
2016-Feb-01 19:33N 54°23' E 012°09'1110.7
2016-Feb-01 18:33N 54°13' E 012°05'4 3.5
2016-Feb-01 17:19N 54°09' E 012°07'0 0.0
2016-Feb-01 16:31N 54°09' E 012°07'0 0.0
2016-Feb-01 15:28N 54°09' E 012°07'0 0.0
2016-Feb-01 09:31N 54°09' E 012°07'0 0.0
2016-Feb-01 06:27N 54°09' E 012°07'0 0.0
2016-Feb-01 03:30N 54°09' E 012°07'0 0.0
2016-Feb-01 02:30N 54°09' E 012°07'0 0.0
2016-Jan-31 23:33N 54°09' E 012°07'2 1.5
2016-Jan-31 22:22N 54°10' E 012°06'8 9.5
2016-Jan-31 21:32N 54°17' E 011°58'1111.4
2016-Jan-31 20:33N 54°24' E 011°43'1212.3
2016-Jan-31 19:33N 54°30' E 011°25'1212.2
2016-Jan-31 18:33N 54°35' E 011°06'1111.2
2016-Jan-31 17:33N 54°34' E 010°46'35 6.9
2016-Jan-31 12:34N 54°22' E 009°50'8 7.8
2016-Jan-31 11:29N 54°17' E 009°39'18 7.5
2016-Jan-31 09:07N 54°04' E 009°19'5 8.4
2016-Jan-31 08:32N 53°59' E 009°17'7 7.2
2016-Jan-31 07:33N 53°54' E 009°09'5 4.8
2016-Jan-31 06:33N 53°51' E 009°02'10 9.8
2016-Jan-31 05:33N 53°51' E 008°45'9 9.4
2016-Jan-31 04:33N 53°58' E 008°33'10 9.8
2016-Jan-31 03:33N 53°59' E 008°17'1010.0
2016-Jan-31 02:33N 53°58' E 008°00'1010.4
2016-Jan-31 01:33N 53°55' E 007°43'1917.4
2016-Jan-31 00:27N 53°51' E 007°11'2 2.1
2016-Jan-30 23:34N 53°50' E 007°08'  

Dump ship's entire track history